sensor_id;sensor_type;location;lat;lon;timestamp;P1;durP1;ratioP1;P2;durP2;ratioP2
17965;SDS011;9108;53.204;10.424;2023-02-23T00:01:08;59.60;;;24.33;;
17965;SDS011;9108;53.204;10.424;2023-02-23T00:03:37;64.57;;;23.98;;
17965;SDS011;9108;53.204;10.424;2023-02-23T00:06:05;65.03;;;23.85;;
17965;SDS011;9108;53.204;10.424;2023-02-23T00:08:32;62.70;;;23.92;;
17965;SDS011;9108;53.204;10.424;2023-02-23T00:11:00;60.20;;;23.53;;
17965;SDS011;9108;53.204;10.424;2023-02-23T00:13:28;60.58;;;24.13;;
17965;SDS011;9108;53.204;10.424;2023-02-23T00:15:55;64.05;;;23.88;;
17965;SDS011;9108;53.204;10.424;2023-02-23T00:18:23;63.22;;;23.65;;
17965;SDS011;9108;53.204;10.424;2023-02-23T00:20:56;63.70;;;23.67;;
17965;SDS011;9108;53.204;10.424;2023-02-23T00:23:23;64.13;;;24.00;;
17965;SDS011;9108;53.204;10.424;2023-02-23T00:25:51;64.70;;;23.10;;
17965;SDS011;9108;53.204;10.424;2023-02-23T00:28:18;61.80;;;23.05;;
17965;SDS011;9108;53.204;10.424;2023-02-23T00:30:46;58.88;;;22.52;;
17965;SDS011;9108;53.204;10.424;2023-02-23T00:33:13;65.63;;;23.63;;
17965;SDS011;9108;53.204;10.424;2023-02-23T00:35:40;57.40;;;22.77;;
17965;SDS011;9108;53.204;10.424;2023-02-23T00:38:09;61.70;;;23.00;;
17965;SDS011;9108;53.204;10.424;2023-02-23T00:40:38;66.32;;;23.65;;
17965;SDS011;9108;53.204;10.424;2023-02-23T00:43:06;55.70;;;22.88;;
17965;SDS011;9108;53.204;10.424;2023-02-23T00:45:34;60.72;;;23.05;;
17965;SDS011;9108;53.204;10.424;2023-02-23T00:48:01;61.40;;;23.25;;
17965;SDS011;9108;53.204;10.424;2023-02-23T00:50:31;65.82;;;23.27;;
17965;SDS011;9108;53.204;10.424;2023-02-23T00:52:58;66.33;;;24.03;;
17965;SDS011;9108;53.204;10.424;2023-02-23T00:55:27;66.17;;;24.20;;
17965;SDS011;9108;53.204;10.424;2023-02-23T00:57:54;66.28;;;23.35;;
17965;SDS011;9108;53.204;10.424;2023-02-23T01:00:22;60.00;;;22.90;;
17965;SDS011;9108;53.204;10.424;2023-02-23T01:02:50;62.58;;;23.95;;
17965;SDS011;9108;53.204;10.424;2023-02-23T01:05:17;64.40;;;23.90;;
17965;SDS011;9108;53.204;10.424;2023-02-23T01:07:46;66.60;;;23.85;;
17965;SDS011;9108;53.204;10.424;2023-02-23T01:10:13;60.70;;;23.75;;
17965;SDS011;9108;53.204;10.424;2023-02-23T01:12:49;65.95;;;24.15;;
17965;SDS011;9108;53.204;10.424;2023-02-23T01:15:17;65.90;;;23.92;;
17965;SDS011;9108;53.204;10.424;2023-02-23T01:17:44;62.88;;;23.45;;
17965;SDS011;9108;53.204;10.424;2023-02-23T01:20:13;64.68;;;23.17;;
17965;SDS011;9108;53.204;10.424;2023-02-23T01:22:42;63.60;;;23.17;;
17965;SDS011;9108;53.204;10.424;2023-02-23T01:25:09;65.30;;;24.17;;
17965;SDS011;9108;53.204;10.424;2023-02-23T01:27:37;67.82;;;24.20;;
17965;SDS011;9108;53.204;10.424;2023-02-23T01:30:07;66.03;;;24.02;;
17965;SDS011;9108;53.204;10.424;2023-02-23T01:32:34;64.35;;;24.27;;
17965;SDS011;9108;53.204;10.424;2023-02-23T01:35:02;71.32;;;25.20;;
17965;SDS011;9108;53.204;10.424;2023-02-23T01:37:30;68.77;;;24.73;;
17965;SDS011;9108;53.204;10.424;2023-02-23T01:39:59;63.90;;;23.20;;
17965;SDS011;9108;53.204;10.424;2023-02-23T01:42:30;70.65;;;24.63;;
17965;SDS011;9108;53.204;10.424;2023-02-23T01:47:51;72.28;;;25.08;;
17965;SDS011;9108;53.204;10.424;2023-02-23T01:50:18;74.53;;;24.48;;
17965;SDS011;9108;53.204;10.424;2023-02-23T01:52:46;66.65;;;24.92;;
17965;SDS011;9108;53.204;10.424;2023-02-23T01:55:16;70.25;;;24.70;;
17965;SDS011;9108;53.204;10.424;2023-02-23T01:57:48;68.97;;;24.60;;
17965;SDS011;9108;53.204;10.424;2023-02-23T02:00:17;67.60;;;24.00;;
17965;SDS011;9108;53.204;10.424;2023-02-23T02:02:51;70.22;;;23.88;;
17965;SDS011;9108;53.204;10.424;2023-02-23T02:05:18;66.23;;;23.83;;
17965;SDS011;9108;53.204;10.424;2023-02-23T02:07:46;72.35;;;24.17;;
17965;SDS011;9108;53.204;10.424;2023-02-23T02:10:15;67.28;;;24.50;;
17965;SDS011;9108;53.204;10.424;2023-02-23T02:13:06;67.28;;;24.20;;
17965;SDS011;9108;53.204;10.424;2023-02-23T02:15:34;62.57;;;23.40;;
17965;SDS011;9108;53.204;10.424;2023-02-23T02:18:06;64.90;;;23.27;;
17965;SDS011;9108;53.204;10.424;2023-02-23T02:20:51;70.32;;;23.60;;
17965;SDS011;9108;53.204;10.424;2023-02-23T02:26:20;76.45;;;25.60;;
17965;SDS011;9108;53.204;10.424;2023-02-23T02:29:03;74.32;;;24.80;;
17965;SDS011;9108;53.204;10.424;2023-02-23T02:34:35;82.18;;;25.52;;
17965;SDS011;9108;53.204;10.424;2023-02-23T02:42:58;84.68;;;25.67;;
17965;SDS011;9108;53.204;10.424;2023-02-23T02:45:26;84.20;;;26.05;;
17965;SDS011;9108;53.204;10.424;2023-02-23T02:47:57;73.55;;;25.00;;
17965;SDS011;9108;53.204;10.424;2023-02-23T02:50:29;71.27;;;24.67;;
17965;SDS011;9108;53.204;10.424;2023-02-23T02:53:00;79.10;;;24.52;;
17965;SDS011;9108;53.204;10.424;2023-02-23T02:55:29;79.78;;;25.30;;
17965;SDS011;9108;53.204;10.424;2023-02-23T02:58:01;69.20;;;23.98;;
17965;SDS011;9108;53.204;10.424;2023-02-23T03:00:34;82.55;;;24.92;;
17965;SDS011;9108;53.204;10.424;2023-02-23T03:03:29;71.70;;;24.65;;
17965;SDS011;9108;53.204;10.424;2023-02-23T03:06:14;78.67;;;24.97;;
17965;SDS011;9108;53.204;10.424;2023-02-23T03:09:01;74.65;;;24.00;;
17965;SDS011;9108;53.204;10.424;2023-02-23T03:11:49;83.38;;;25.27;;
17965;SDS011;9108;53.204;10.424;2023-02-23T03:14:39;82.75;;;25.48;;
17965;SDS011;9108;53.204;10.424;2023-02-23T03:17:31;90.40;;;26.25;;
17965;SDS011;9108;53.204;10.424;2023-02-23T03:20:19;100.80;;;27.25;;
17965;SDS011;9108;53.204;10.424;2023-02-23T03:23:08;105.53;;;28.35;;
17965;SDS011;9108;53.204;10.424;2023-02-23T03:25:58;107.07;;;28.73;;
17965;SDS011;9108;53.204;10.424;2023-02-23T03:28:46;118.97;;;29.42;;
17965;SDS011;9108;53.204;10.424;2023-02-23T03:31:36;105.57;;;29.08;;
17965;SDS011;9108;53.204;10.424;2023-02-23T03:34:24;104.78;;;28.35;;
17965;SDS011;9108;53.204;10.424;2023-02-23T03:37:13;100.68;;;27.88;;
17965;SDS011;9108;53.204;10.424;2023-02-23T03:40:03;110.65;;;29.10;;
17965;SDS011;9108;53.204;10.424;2023-02-23T03:42:49;150.73;;;31.25;;
17965;SDS011;9108;53.204;10.424;2023-02-23T03:45:36;114.13;;;29.83;;
17965;SDS011;9108;53.204;10.424;2023-02-23T03:48:23;117.57;;;29.70;;
17965;SDS011;9108;53.204;10.424;2023-02-23T03:51:08;102.53;;;29.63;;
17965;SDS011;9108;53.204;10.424;2023-02-23T03:53:55;139.02;;;30.50;;
17965;SDS011;9108;53.204;10.424;2023-02-23T03:56:43;178.32;;;32.15;;
17965;SDS011;9108;53.204;10.424;2023-02-23T03:59:30;142.90;;;30.35;;
17965;SDS011;9108;53.204;10.424;2023-02-23T04:02:16;145.35;;;30.80;;
17965;SDS011;9108;53.204;10.424;2023-02-23T04:05:05;183.15;;;32.22;;
17965;SDS011;9108;53.204;10.424;2023-02-23T04:07:51;132.32;;;31.33;;
17965;SDS011;9108;53.204;10.424;2023-02-23T04:10:39;123.70;;;31.13;;
17965;SDS011;9108;53.204;10.424;2023-02-23T04:13:27;166.23;;;32.42;;
17965;SDS011;9108;53.204;10.424;2023-02-23T04:15:55;118.15;;;30.65;;
17965;SDS011;9108;53.204;10.424;2023-02-23T04:18:22;111.88;;;30.98;;
17965;SDS011;9108;53.204;10.424;2023-02-23T04:20:51;173.45;;;32.58;;
17965;SDS011;9108;53.204;10.424;2023-02-23T04:23:19;161.57;;;32.00;;
17965;SDS011;9108;53.204;10.424;2023-02-23T04:25:47;188.80;;;32.85;;
17965;SDS011;9108;53.204;10.424;2023-02-23T04:28:15;150.80;;;33.28;;
17965;SDS011;9108;53.204;10.424;2023-02-23T04:30:42;116.57;;;31.77;;
17965;SDS011;9108;53.204;10.424;2023-02-23T04:33:09;131.15;;;32.08;;
17965;SDS011;9108;53.204;10.424;2023-02-23T04:35:37;127.80;;;30.48;;
17965;SDS011;9108;53.204;10.424;2023-02-23T04:38:05;116.75;;;30.88;;
17965;SDS011;9108;53.204;10.424;2023-02-23T04:40:32;106.87;;;31.80;;
17965;SDS011;9108;53.204;10.424;2023-02-23T04:43:00;180.23;;;33.30;;
17965;SDS011;9108;53.204;10.424;2023-02-23T04:45:27;140.25;;;33.58;;
17965;SDS011;9108;53.204;10.424;2023-02-23T04:47:54;178.10;;;32.65;;
17965;SDS011;9108;53.204;10.424;2023-02-23T04:50:21;135.85;;;33.00;;
17965;SDS011;9108;53.204;10.424;2023-02-23T04:52:49;124.20;;;33.03;;
17965;SDS011;9108;53.204;10.424;2023-02-23T04:55:19;119.65;;;32.65;;
17965;SDS011;9108;53.204;10.424;2023-02-23T04:57:46;120.97;;;32.65;;
17965;SDS011;9108;53.204;10.424;2023-02-23T05:00:14;180.70;;;33.67;;
17965;SDS011;9108;53.204;10.424;2023-02-23T05:02:42;171.73;;;35.03;;
17965;SDS011;9108;53.204;10.424;2023-02-23T05:05:09;153.50;;;34.58;;
17965;SDS011;9108;53.204;10.424;2023-02-23T05:07:36;223.00;;;35.70;;
17965;SDS011;9108;53.204;10.424;2023-02-23T05:10:04;178.50;;;34.30;;
17965;SDS011;9108;53.204;10.424;2023-02-23T05:12:32;118.10;;;32.00;;
17965;SDS011;9108;53.204;10.424;2023-02-23T05:15:00;132.25;;;33.70;;
17965;SDS011;9108;53.204;10.424;2023-02-23T05:17:27;121.55;;;33.13;;
17965;SDS011;9108;53.204;10.424;2023-02-23T05:19:54;118.53;;;32.05;;
17965;SDS011;9108;53.204;10.424;2023-02-23T05:22:21;201.10;;;35.00;;
17965;SDS011;9108;53.204;10.424;2023-02-23T05:24:48;152.45;;;33.72;;
17965;SDS011;9108;53.204;10.424;2023-02-23T05:27:15;162.23;;;34.63;;
17965;SDS011;9108;53.204;10.424;2023-02-23T05:29:44;150.55;;;34.05;;
17965;SDS011;9108;53.204;10.424;2023-02-23T05:32:11;139.70;;;34.47;;
17965;SDS011;9108;53.204;10.424;2023-02-23T05:34:39;156.05;;;34.38;;
17965;SDS011;9108;53.204;10.424;2023-02-23T05:37:06;202.43;;;35.17;;
17965;SDS011;9108;53.204;10.424;2023-02-23T05:39:33;118.70;;;33.15;;
17965;SDS011;9108;53.204;10.424;2023-02-23T05:42:01;164.93;;;33.67;;
17965;SDS011;9108;53.204;10.424;2023-02-23T05:44:28;215.82;;;34.40;;
17965;SDS011;9108;53.204;10.424;2023-02-23T05:46:57;166.30;;;34.47;;
17965;SDS011;9108;53.204;10.424;2023-02-23T05:49:25;171.73;;;34.60;;
17965;SDS011;9108;53.204;10.424;2023-02-23T05:51:52;141.15;;;32.17;;
17965;SDS011;9108;53.204;10.424;2023-02-23T05:54:19;134.60;;;33.17;;
17965;SDS011;9108;53.204;10.424;2023-02-23T05:56:46;136.55;;;33.25;;
17965;SDS011;9108;53.204;10.424;2023-02-23T05:59:16;120.15;;;32.08;;
17965;SDS011;9108;53.204;10.424;2023-02-23T06:01:46;181.75;;;33.45;;
17965;SDS011;9108;53.204;10.424;2023-02-23T06:04:14;175.90;;;33.50;;
17965;SDS011;9108;53.204;10.424;2023-02-23T06:06:50;204.32;;;36.42;;
17965;SDS011;9108;53.204;10.424;2023-02-23T06:09:24;181.23;;;36.13;;
17965;SDS011;9108;53.204;10.424;2023-02-23T06:11:51;200.38;;;37.58;;
17965;SDS011;9108;53.204;10.424;2023-02-23T06:14:19;207.80;;;37.10;;
17965;SDS011;9108;53.204;10.424;2023-02-23T06:16:49;176.10;;;38.05;;
17965;SDS011;9108;53.204;10.424;2023-02-23T06:19:18;149.07;;;37.27;;
17965;SDS011;9108;53.204;10.424;2023-02-23T06:21:48;157.05;;;37.92;;
17965;SDS011;9108;53.204;10.424;2023-02-23T06:24:19;154.98;;;38.22;;
17965;SDS011;9108;53.204;10.424;2023-02-23T06:26:48;152.32;;;37.83;;
17965;SDS011;9108;53.204;10.424;2023-02-23T06:29:15;149.27;;;38.10;;
17965;SDS011;9108;53.204;10.424;2023-02-23T06:31:43;153.77;;;39.03;;
17965;SDS011;9108;53.204;10.424;2023-02-23T06:34:10;139.48;;;37.17;;
17965;SDS011;9108;53.204;10.424;2023-02-23T06:36:39;128.80;;;35.60;;
17965;SDS011;9108;53.204;10.424;2023-02-23T06:39:09;136.18;;;36.75;;
17965;SDS011;9108;53.204;10.424;2023-02-23T06:41:37;138.93;;;38.03;;
17965;SDS011;9108;53.204;10.424;2023-02-23T06:44:04;134.90;;;36.33;;
17965;SDS011;9108;53.204;10.424;2023-02-23T06:46:31;115.07;;;33.55;;
17965;SDS011;9108;53.204;10.424;2023-02-23T06:48:59;111.47;;;32.90;;
17965;SDS011;9108;53.204;10.424;2023-02-23T06:51:27;112.80;;;33.13;;
17965;SDS011;9108;53.204;10.424;2023-02-23T06:53:55;99.30;;;32.75;;
17965;SDS011;9108;53.204;10.424;2023-02-23T06:56:23;110.68;;;33.45;;
17965;SDS011;9108;53.204;10.424;2023-02-23T06:58:50;111.20;;;34.13;;
17965;SDS011;9108;53.204;10.424;2023-02-23T07:01:18;118.95;;;35.60;;
17965;SDS011;9108;53.204;10.424;2023-02-23T07:03:45;117.50;;;34.75;;
17965;SDS011;9108;53.204;10.424;2023-02-23T07:06:13;106.53;;;33.83;;
17965;SDS011;9108;53.204;10.424;2023-02-23T07:08:40;106.07;;;33.20;;
17965;SDS011;9108;53.204;10.424;2023-02-23T07:11:11;106.95;;;32.58;;
17965;SDS011;9108;53.204;10.424;2023-02-23T07:13:39;110.55;;;33.90;;
17965;SDS011;9108;53.204;10.424;2023-02-23T07:16:06;129.50;;;40.33;;
17965;SDS011;9108;53.204;10.424;2023-02-23T07:18:35;132.80;;;41.88;;
17965;SDS011;9108;53.204;10.424;2023-02-23T07:21:02;137.45;;;40.63;;
17965;SDS011;9108;53.204;10.424;2023-02-23T07:23:30;125.32;;;38.70;;
17965;SDS011;9108;53.204;10.424;2023-02-23T07:25:57;130.13;;;38.42;;
17965;SDS011;9108;53.204;10.424;2023-02-23T07:28:26;138.95;;;40.80;;
17965;SDS011;9108;53.204;10.424;2023-02-23T07:30:54;127.85;;;39.92;;
17965;SDS011;9108;53.204;10.424;2023-02-23T07:33:21;134.40;;;40.30;;
17965;SDS011;9108;53.204;10.424;2023-02-23T07:35:49;137.40;;;40.85;;
17965;SDS011;9108;53.204;10.424;2023-02-23T07:38:16;133.13;;;40.05;;
17965;SDS011;9108;53.204;10.424;2023-02-23T07:40:44;122.60;;;38.50;;
17965;SDS011;9108;53.204;10.424;2023-02-23T07:43:11;118.40;;;38.30;;
17965;SDS011;9108;53.204;10.424;2023-02-23T07:45:40;120.60;;;38.08;;
17965;SDS011;9108;53.204;10.424;2023-02-23T07:48:07;114.78;;;36.28;;
17965;SDS011;9108;53.204;10.424;2023-02-23T07:50:34;109.78;;;36.80;;
17965;SDS011;9108;53.204;10.424;2023-02-23T07:53:02;119.00;;;39.08;;
17965;SDS011;9108;53.204;10.424;2023-02-23T07:55:30;118.82;;;41.75;;
17965;SDS011;9108;53.204;10.424;2023-02-23T07:57:57;126.00;;;42.15;;
17965;SDS011;9108;53.204;10.424;2023-02-23T08:00:25;119.13;;;41.23;;
17965;SDS011;9108;53.204;10.424;2023-02-23T08:02:54;130.13;;;42.55;;
17965;SDS011;9108;53.204;10.424;2023-02-23T08:05:21;128.80;;;42.15;;
17965;SDS011;9108;53.204;10.424;2023-02-23T08:07:52;133.73;;;44.25;;
17965;SDS011;9108;53.204;10.424;2023-02-23T08:10:19;136.50;;;43.20;;
17965;SDS011;9108;53.204;10.424;2023-02-23T08:12:47;134.40;;;43.70;;
17965;SDS011;9108;53.204;10.424;2023-02-23T08:15:14;144.77;;;44.63;;
17965;SDS011;9108;53.204;10.424;2023-02-23T08:17:45;135.35;;;43.20;;
17965;SDS011;9108;53.204;10.424;2023-02-23T08:20:14;137.80;;;45.13;;
17965;SDS011;9108;53.204;10.424;2023-02-23T08:22:41;135.80;;;43.90;;
17965;SDS011;9108;53.204;10.424;2023-02-23T08:25:09;132.73;;;43.30;;
17965;SDS011;9108;53.204;10.424;2023-02-23T08:27:39;130.00;;;42.70;;
17965;SDS011;9108;53.204;10.424;2023-02-23T08:30:07;133.88;;;44.28;;
17965;SDS011;9108;53.204;10.424;2023-02-23T08:32:34;137.55;;;44.53;;
17965;SDS011;9108;53.204;10.424;2023-02-23T08:35:02;135.88;;;44.35;;
17965;SDS011;9108;53.204;10.424;2023-02-23T08:37:31;136.35;;;44.25;;
17965;SDS011;9108;53.204;10.424;2023-02-23T08:39:58;143.32;;;45.42;;
17965;SDS011;9108;53.204;10.424;2023-02-23T08:42:25;143.13;;;45.88;;
17965;SDS011;9108;53.204;10.424;2023-02-23T08:44:52;149.27;;;46.58;;
17965;SDS011;9108;53.204;10.424;2023-02-23T08:47:20;136.48;;;44.08;;
17965;SDS011;9108;53.204;10.424;2023-02-23T08:49:48;137.73;;;45.13;;
17965;SDS011;9108;53.204;10.424;2023-02-23T08:52:18;139.33;;;45.93;;
17965;SDS011;9108;53.204;10.424;2023-02-23T08:54:47;139.68;;;45.28;;
17965;SDS011;9108;53.204;10.424;2023-02-23T08:57:14;134.35;;;43.88;;
17965;SDS011;9108;53.204;10.424;2023-02-23T08:59:42;136.85;;;45.08;;
17965;SDS011;9108;53.204;10.424;2023-02-23T09:02:10;135.77;;;44.78;;
17965;SDS011;9108;53.204;10.424;2023-02-23T09:04:38;130.15;;;43.97;;
17965;SDS011;9108;53.204;10.424;2023-02-23T09:07:07;136.73;;;44.17;;
17965;SDS011;9108;53.204;10.424;2023-02-23T09:09:35;123.00;;;41.80;;
17965;SDS011;9108;53.204;10.424;2023-02-23T09:12:04;137.57;;;46.47;;
17965;SDS011;9108;53.204;10.424;2023-02-23T09:14:31;143.15;;;46.67;;
17965;SDS011;9108;53.204;10.424;2023-02-23T09:17:00;139.13;;;45.93;;
17965;SDS011;9108;53.204;10.424;2023-02-23T09:19:27;142.68;;;46.47;;
17965;SDS011;9108;53.204;10.424;2023-02-23T09:21:55;130.20;;;43.58;;
17965;SDS011;9108;53.204;10.424;2023-02-23T09:24:22;129.00;;;43.30;;
17965;SDS011;9108;53.204;10.424;2023-02-23T09:26:49;125.70;;;42.67;;
17965;SDS011;9108;53.204;10.424;2023-02-23T09:29:19;118.07;;;41.03;;
17965;SDS011;9108;53.204;10.424;2023-02-23T09:31:47;120.47;;;40.53;;
17965;SDS011;9108;53.204;10.424;2023-02-23T09:34:15;109.00;;;38.85;;
17965;SDS011;9108;53.204;10.424;2023-02-23T09:36:42;108.30;;;38.87;;
17965;SDS011;9108;53.204;10.424;2023-02-23T09:39:09;109.25;;;39.42;;
17965;SDS011;9108;53.204;10.424;2023-02-23T09:41:55;109.50;;;39.47;;
17965;SDS011;9108;53.204;10.424;2023-02-23T09:47:11;97.15;;;37.63;;
17965;SDS011;9108;53.204;10.424;2023-02-23T09:49:40;96.60;;;36.65;;
17965;SDS011;9108;53.204;10.424;2023-02-23T09:52:10;104.75;;;37.28;;
17965;SDS011;9108;53.204;10.424;2023-02-23T09:54:41;97.50;;;36.83;;
17965;SDS011;9108;53.204;10.424;2023-02-23T09:57:10;84.88;;;34.28;;
17965;SDS011;9108;53.204;10.424;2023-02-23T09:59:38;87.40;;;34.70;;
17965;SDS011;9108;53.204;10.424;2023-02-23T10:02:08;86.63;;;34.40;;
17965;SDS011;9108;53.204;10.424;2023-02-23T10:04:44;83.60;;;33.85;;
17965;SDS011;9108;53.204;10.424;2023-02-23T10:07:14;85.07;;;34.03;;
17965;SDS011;9108;53.204;10.424;2023-02-23T10:09:53;84.72;;;32.78;;
17965;SDS011;9108;53.204;10.424;2023-02-23T10:12:27;81.27;;;33.17;;
17965;SDS011;9108;53.204;10.424;2023-02-23T10:15:02;80.10;;;31.77;;
17965;SDS011;9108;53.204;10.424;2023-02-23T10:17:33;78.57;;;31.60;;
17965;SDS011;9108;53.204;10.424;2023-02-23T10:20:05;74.55;;;30.17;;
17965;SDS011;9108;53.204;10.424;2023-02-23T10:22:35;67.45;;;28.60;;
17965;SDS011;9108;53.204;10.424;2023-02-23T10:25:05;66.60;;;28.58;;
17965;SDS011;9108;53.204;10.424;2023-02-23T10:27:35;63.17;;;27.65;;
17965;SDS011;9108;53.204;10.424;2023-02-23T10:30:11;61.87;;;26.83;;
17965;SDS011;9108;53.204;10.424;2023-02-23T10:32:45;62.10;;;26.70;;
17965;SDS011;9108;53.204;10.424;2023-02-23T10:35:17;60.40;;;26.87;;
17965;SDS011;9108;53.204;10.424;2023-02-23T10:37:45;57.72;;;26.00;;
17965;SDS011;9108;53.204;10.424;2023-02-23T10:40:13;54.67;;;24.25;;
17965;SDS011;9108;53.204;10.424;2023-02-23T10:42:42;53.05;;;23.98;;
17965;SDS011;9108;53.204;10.424;2023-02-23T10:45:11;49.05;;;22.63;;
17965;SDS011;9108;53.204;10.424;2023-02-23T10:47:46;43.22;;;20.70;;
17965;SDS011;9108;53.204;10.424;2023-02-23T10:50:15;46.47;;;21.17;;
17965;SDS011;9108;53.204;10.424;2023-02-23T10:52:44;42.42;;;20.10;;
17965;SDS011;9108;53.204;10.424;2023-02-23T10:55:19;38.38;;;18.75;;
17965;SDS011;9108;53.204;10.424;2023-02-23T10:57:48;37.67;;;18.48;;
17965;SDS011;9108;53.204;10.424;2023-02-23T11:00:24;37.75;;;18.23;;
17965;SDS011;9108;53.204;10.424;2023-02-23T11:02:57;35.13;;;17.40;;
17965;SDS011;9108;53.204;10.424;2023-02-23T11:05:33;34.03;;;17.30;;
17965;SDS011;9108;53.204;10.424;2023-02-23T11:08:07;31.98;;;15.88;;
17965;SDS011;9108;53.204;10.424;2023-02-23T11:10:35;30.98;;;15.57;;
17965;SDS011;9108;53.204;10.424;2023-02-23T11:13:02;32.92;;;16.02;;
17965;SDS011;9108;53.204;10.424;2023-02-23T11:15:30;28.60;;;14.60;;
17965;SDS011;9108;53.204;10.424;2023-02-23T11:18:01;32.20;;;14.93;;
17965;SDS011;9108;53.204;10.424;2023-02-23T11:20:29;33.72;;;15.90;;
17965;SDS011;9108;53.204;10.424;2023-02-23T11:22:58;36.80;;;16.67;;
17965;SDS011;9108;53.204;10.424;2023-02-23T11:25:27;37.47;;;17.23;;
17965;SDS011;9108;53.204;10.424;2023-02-23T11:27:55;37.08;;;17.00;;
17965;SDS011;9108;53.204;10.424;2023-02-23T11:30:24;39.03;;;17.73;;
17965;SDS011;9108;53.204;10.424;2023-02-23T11:32:54;43.70;;;18.50;;
17965;SDS011;9108;53.204;10.424;2023-02-23T11:35:29;44.53;;;18.95;;
17965;SDS011;9108;53.204;10.424;2023-02-23T11:37:56;46.88;;;19.45;;
17965;SDS011;9108;53.204;10.424;2023-02-23T11:40:26;50.25;;;21.13;;
17965;SDS011;9108;53.204;10.424;2023-02-23T11:42:55;46.63;;;19.77;;
17965;SDS011;9108;53.204;10.424;2023-02-23T11:45:29;52.13;;;20.10;;
17965;SDS011;9108;53.204;10.424;2023-02-23T11:47:58;52.45;;;21.10;;
17965;SDS011;9108;53.204;10.424;2023-02-23T11:50:28;60.13;;;22.92;;
17965;SDS011;9108;53.204;10.424;2023-02-23T11:53:00;59.80;;;23.45;;
17965;SDS011;9108;53.204;10.424;2023-02-23T11:55:31;67.22;;;25.15;;
17965;SDS011;9108;53.204;10.424;2023-02-23T11:58:06;68.43;;;25.33;;
17965;SDS011;9108;53.204;10.424;2023-02-23T12:00:34;69.82;;;26.08;;
17965;SDS011;9108;53.204;10.424;2023-02-23T12:03:04;69.88;;;26.05;;
17965;SDS011;9108;53.204;10.424;2023-02-23T12:05:32;74.55;;;27.20;;
17965;SDS011;9108;53.204;10.424;2023-02-23T12:08:01;79.28;;;28.80;;
17965;SDS011;9108;53.204;10.424;2023-02-23T12:10:33;88.00;;;30.52;;
17965;SDS011;9108;53.204;10.424;2023-02-23T12:13:04;98.80;;;33.40;;
17965;SDS011;9108;53.204;10.424;2023-02-23T12:15:39;113.85;;;36.55;;
17965;SDS011;9108;53.204;10.424;2023-02-23T12:18:20;133.83;;;40.43;;
17965;SDS011;9108;53.204;10.424;2023-02-23T12:20:47;143.27;;;42.00;;
17965;SDS011;9108;53.204;10.424;2023-02-23T12:23:19;144.68;;;41.75;;
17965;SDS011;9108;53.204;10.424;2023-02-23T12:25:49;147.55;;;43.08;;
17965;SDS011;9108;53.204;10.424;2023-02-23T12:28:19;158.45;;;44.35;;
17965;SDS011;9108;53.204;10.424;2023-02-23T12:30:52;145.32;;;42.30;;
17965;SDS011;9108;53.204;10.424;2023-02-23T12:33:23;143.63;;;42.20;;
17965;SDS011;9108;53.204;10.424;2023-02-23T12:35:59;138.82;;;40.70;;
17965;SDS011;9108;53.204;10.424;2023-02-23T12:38:30;130.50;;;39.83;;
17965;SDS011;9108;53.204;10.424;2023-02-23T12:41:04;127.18;;;39.13;;
17965;SDS011;9108;53.204;10.424;2023-02-23T12:43:39;130.20;;;39.55;;
17965;SDS011;9108;53.204;10.424;2023-02-23T12:46:13;131.50;;;39.35;;
17965;SDS011;9108;53.204;10.424;2023-02-23T12:48:55;127.10;;;37.92;;
17965;SDS011;9108;53.204;10.424;2023-02-23T12:51:26;132.77;;;39.53;;
17965;SDS011;9108;53.204;10.424;2023-02-23T12:53:55;131.32;;;38.60;;
17965;SDS011;9108;53.204;10.424;2023-02-23T13:02:00;141.97;;;40.03;;
17965;SDS011;9108;53.204;10.424;2023-02-23T13:07:28;135.60;;;38.38;;
17965;SDS011;9108;53.204;10.424;2023-02-23T13:10:01;142.60;;;38.97;;
17965;SDS011;9108;53.204;10.424;2023-02-23T13:12:35;143.93;;;39.85;;
17965;SDS011;9108;53.204;10.424;2023-02-23T13:15:09;146.07;;;38.53;;
17965;SDS011;9108;53.204;10.424;2023-02-23T13:17:47;144.10;;;39.87;;
17965;SDS011;9108;53.204;10.424;2023-02-23T13:20:19;164.32;;;42.17;;
17965;SDS011;9108;53.204;10.424;2023-02-23T13:22:50;153.38;;;39.33;;
17965;SDS011;9108;53.204;10.424;2023-02-23T13:25:22;148.05;;;38.60;;
17965;SDS011;9108;53.204;10.424;2023-02-23T13:27:54;147.27;;;37.83;;
17965;SDS011;9108;53.204;10.424;2023-02-23T13:30:37;151.40;;;39.78;;
17965;SDS011;9108;53.204;10.424;2023-02-23T13:33:14;165.27;;;41.00;;
17965;SDS011;9108;53.204;10.424;2023-02-23T13:35:43;158.60;;;39.67;;
17965;SDS011;9108;53.204;10.424;2023-02-23T13:38:13;166.68;;;41.08;;
17965;SDS011;9108;53.204;10.424;2023-02-23T13:40:44;167.50;;;40.85;;
17965;SDS011;9108;53.204;10.424;2023-02-23T13:43:14;182.20;;;45.80;;
17965;SDS011;9108;53.204;10.424;2023-02-23T13:45:51;168.38;;;40.38;;
17965;SDS011;9108;53.204;10.424;2023-02-23T15:17:56;144.75;;;37.25;;
17965;SDS011;9108;53.204;10.424;2023-02-23T15:20:26;140.10;;;36.28;;
17965;SDS011;9108;53.204;10.424;2023-02-23T15:22:56;137.90;;;36.33;;
17965;SDS011;9108;53.204;10.424;2023-02-23T15:25:31;143.52;;;37.45;;
17965;SDS011;9108;53.204;10.424;2023-02-23T15:28:00;148.25;;;37.97;;
17965;SDS011;9108;53.204;10.424;2023-02-23T15:30:43;148.45;;;37.38;;
17965;SDS011;9108;53.204;10.424;2023-02-23T15:33:13;139.82;;;36.20;;
17965;SDS011;9108;53.204;10.424;2023-02-23T15:35:48;150.95;;;37.40;;
17965;SDS011;9108;53.204;10.424;2023-02-23T15:38:18;158.25;;;38.50;;
17965;SDS011;9108;53.204;10.424;2023-02-23T15:40:46;139.82;;;36.70;;
17965;SDS011;9108;53.204;10.424;2023-02-23T15:43:15;146.38;;;37.60;;
17965;SDS011;9108;53.204;10.424;2023-02-23T15:45:43;156.93;;;38.45;;
17965;SDS011;9108;53.204;10.424;2023-02-23T15:48:15;152.32;;;37.05;;
17965;SDS011;9108;53.204;10.424;2023-02-23T15:50:45;148.88;;;37.17;;
17965;SDS011;9108;53.204;10.424;2023-02-23T15:53:18;141.98;;;35.50;;
17965;SDS011;9108;53.204;10.424;2023-02-23T15:55:49;142.13;;;36.15;;
17965;SDS011;9108;53.204;10.424;2023-02-23T15:58:20;145.85;;;37.80;;
17965;SDS011;9108;53.204;10.424;2023-02-23T16:00:49;146.95;;;36.55;;
17965;SDS011;9108;53.204;10.424;2023-02-23T16:03:24;146.60;;;36.63;;
17965;SDS011;9108;53.204;10.424;2023-02-23T16:05:58;145.38;;;35.92;;
17965;SDS011;9108;53.204;10.424;2023-02-23T16:08:25;148.80;;;37.15;;
17965;SDS011;9108;53.204;10.424;2023-02-23T16:10:54;142.70;;;36.17;;
17965;SDS011;9108;53.204;10.424;2023-02-23T16:13:26;150.75;;;36.47;;
17965;SDS011;9108;53.204;10.424;2023-02-23T16:15:54;149.68;;;36.28;;
17965;SDS011;9108;53.204;10.424;2023-02-23T16:18:24;133.97;;;33.77;;
17965;SDS011;9108;53.204;10.424;2023-02-23T16:20:55;138.32;;;35.10;;
17965;SDS011;9108;53.204;10.424;2023-02-23T16:23:27;142.50;;;35.13;;
17965;SDS011;9108;53.204;10.424;2023-02-23T16:25:58;134.17;;;34.47;;
17965;SDS011;9108;53.204;10.424;2023-02-23T16:28:31;137.10;;;34.70;;
17965;SDS011;9108;53.204;10.424;2023-02-23T16:31:04;136.10;;;34.00;;